createdAt,value
2023-03-23T00:00:03.957Z,1012.77
2023-03-23T00:01:03.937Z,1012.79
2023-03-23T00:02:03.941Z,1012.77
2023-03-23T00:03:03.938Z,1012.8
2023-03-23T00:04:03.963Z,1012.8
2023-03-23T00:05:03.941Z,1012.77
2023-03-23T00:06:03.943Z,1012.77
2023-03-23T00:07:03.944Z,1012.79
2023-03-23T00:08:03.943Z,1012.79
2023-03-23T00:09:03.965Z,1012.77
2023-03-23T00:10:03.937Z,1012.81
2023-03-23T00:11:03.941Z,1012.78
2023-03-23T00:12:03.956Z,1012.8
2023-03-23T00:13:03.951Z,1012.8
2023-03-23T00:14:03.968Z,1012.81
2023-03-23T00:15:03.935Z,1012.77
2023-03-23T00:16:04.456Z,1012.76
2023-03-23T00:17:03.937Z,1012.78
2023-03-23T00:18:03.943Z,1012.76
2023-03-23T00:19:03.961Z,1012.76
2023-03-23T00:20:03.944Z,1012.78
2023-03-23T00:21:03.959Z,1012.76
2023-03-23T00:22:03.943Z,1012.75
2023-03-23T00:23:03.943Z,1012.79
2023-03-23T00:24:03.980Z,1012.75
2023-03-23T00:25:03.986Z,1012.75
2023-03-23T00:26:03.940Z,1012.76
2023-03-23T00:27:03.960Z,1012.76
2023-03-23T00:28:03.943Z,1012.75
2023-03-23T00:29:03.963Z,1012.76
2023-03-23T00:30:03.946Z,1012.74
2023-03-23T00:31:03.939Z,1012.75
2023-03-23T00:32:03.941Z,1012.79
2023-03-23T00:33:03.938Z,1012.82
2023-03-23T00:34:03.975Z,1012.81
2023-03-23T00:35:03.944Z,1012.79
2023-03-23T00:36:03.979Z,1012.81
2023-03-23T00:37:03.938Z,1012.81
2023-03-23T00:38:03.948Z,1012.77
2023-03-23T00:39:03.964Z,1012.79
2023-03-23T00:40:03.942Z,1012.83
2023-03-23T00:41:03.943Z,1012.8
2023-03-23T00:42:03.967Z,1012.8
2023-03-23T00:43:03.948Z,1012.87
2023-03-23T00:44:03.968Z,1012.85
2023-03-23T00:45:03.947Z,1012.8
2023-03-23T00:46:03.949Z,1012.85
2023-03-23T00:47:03.947Z,1012.87
2023-03-23T00:48:03.944Z,1012.88
2023-03-23T00:49:03.969Z,1012.77
2023-03-23T00:50:03.950Z,1012.83
2023-03-23T00:51:03.946Z,1012.81
2023-03-23T00:52:03.946Z,1012.72
2023-03-23T00:53:03.946Z,1012.76
2023-03-23T00:54:03.962Z,1012.76
2023-03-23T00:55:03.947Z,1012.7
2023-03-23T00:56:03.951Z,1012.74
2023-03-23T00:57:03.965Z,1012.67
2023-03-23T00:58:03.956Z,1012.69
2023-03-23T00:59:03.961Z,1012.7
2023-03-23T01:00:05.512Z,1012.65
2023-03-23T01:01:03.949Z,1012.67
2023-03-23T01:02:03.959Z,1012.65
2023-03-23T01:03:03.949Z,1012.65
2023-03-23T01:04:03.970Z,1012.61
2023-03-23T01:05:03.959Z,1012.61
2023-03-23T01:06:03.948Z,1012.61
2023-03-23T01:07:03.945Z,1012.56
2023-03-23T01:08:03.948Z,1012.55
2023-03-23T01:09:03.961Z,1012.5
2023-03-23T01:10:03.946Z,1012.46
2023-03-23T01:11:03.953Z,1012.5
2023-03-23T01:12:03.960Z,1012.43
2023-03-23T01:13:03.953Z,1012.44
2023-03-23T01:14:03.969Z,1012.44
2023-03-23T01:15:03.944Z,1012.43
2023-03-23T01:16:03.947Z,1012.45
2023-03-23T01:17:03.942Z,1012.41
2023-03-23T01:18:03.946Z,1012.44
2023-03-23T01:19:03.971Z,1012.36
2023-03-23T01:20:03.946Z,1012.38
2023-03-23T01:21:03.959Z,1012.35
2023-03-23T01:22:03.952Z,1012.38
2023-03-23T01:23:03.945Z,1012.35
2023-03-23T01:24:03.966Z,1012.37
2023-03-23T01:25:03.974Z,1012.27
2023-03-23T01:26:03.950Z,1012.28
2023-03-23T01:27:03.958Z,1012.23
2023-03-23T01:28:03.943Z,1012.24
2023-03-23T01:29:03.971Z,1012.19
2023-03-23T01:30:03.947Z,1012.14
2023-03-23T01:31:14.281Z,1012.12
2023-03-23T01:32:03.949Z,1012.1
2023-03-23T01:33:03.944Z,1012.09
2023-03-23T01:34:03.969Z,1012.09
2023-03-23T01:35:03.948Z,1011.95
2023-03-23T01:36:03.981Z,1012.04
2023-03-23T01:37:03.953Z,1011.99
2023-03-23T01:38:03.940Z,1012.03
2023-03-23T01:39:03.970Z,1012.19
2023-03-23T01:40:03.951Z,1012.02
2023-03-23T01:41:03.961Z,1011.97
2023-03-23T01:42:04.000Z,1011.98
2023-03-23T01:43:03.949Z,1012.08
2023-03-23T01:44:03.962Z,1012.08
2023-03-23T01:45:03.950Z,1012.02
2023-03-23T01:46:03.954Z,1012.04
2023-03-23T01:47:03.954Z,1011.99
2023-03-23T01:48:03.959Z,1012.03
2023-03-23T01:49:04.097Z,1012.02
2023-03-23T01:50:03.956Z,1012.05
2023-03-23T01:51:03.954Z,1011.99
2023-03-23T01:52:03.954Z,1012.03
2023-03-23T01:53:03.961Z,1012.07
2023-03-23T01:54:03.986Z,1012.03
2023-03-23T01:55:03.997Z,1012.01
2023-03-23T01:56:03.968Z,1011.99
2023-03-23T01:57:03.972Z,1012.01
2023-03-23T01:58:03.959Z,1012
2023-03-23T01:59:03.979Z,1012.05
2023-03-23T02:00:03.958Z,1012.03
2023-03-23T02:01:03.944Z,1011.99
2023-03-23T02:02:03.958Z,1011.98
2023-03-23T02:03:03.958Z,1011.98
2023-03-23T02:04:03.976Z,1012.03
2023-03-23T02:05:03.963Z,1011.96
2023-03-23T02:06:03.951Z,1011.96
2023-03-23T02:07:03.955Z,1012.09
2023-03-23T02:08:03.962Z,1012.12
2023-03-23T02:09:10.339Z,1011.9
2023-03-23T02:10:03.955Z,1011.95
2023-03-23T02:11:03.953Z,1011.88
2023-03-23T02:12:03.974Z,1011.89
2023-03-23T02:13:03.955Z,1011.92
2023-03-23T02:14:03.970Z,1011.87
2023-03-23T02:15:03.954Z,1011.89
2023-03-23T02:16:03.980Z,1011.79
2023-03-23T02:17:03.951Z,1011.9
2023-03-23T02:18:03.960Z,1011.84
2023-03-23T02:19:03.967Z,1011.74
2023-03-23T02:20:03.950Z,1011.79
2023-03-23T02:21:03.954Z,1011.8
2023-03-23T02:22:03.977Z,1011.8
2023-03-23T02:23:03.943Z,1011.73
2023-03-23T02:24:03.976Z,1011.77
2023-03-23T02:25:03.945Z,1011.7
2023-03-23T02:26:03.951Z,1011.67
2023-03-23T02:27:03.974Z,1011.74
2023-03-23T02:28:03.945Z,1011.65
2023-03-23T02:29:03.980Z,1011.72
2023-03-23T02:30:03.955Z,1011.61
2023-03-23T02:31:03.944Z,1011.59
2023-03-23T02:32:03.947Z,1011.64
2023-03-23T02:33:03.957Z,1011.6
2023-03-23T02:34:03.968Z,1011.65
2023-03-23T02:35:03.962Z,1011.66
2023-03-23T02:36:03.993Z,1011.71
2023-03-23T02:37:03.954Z,1011.67
2023-03-23T02:38:03.946Z,1011.71
2023-03-23T02:39:03.973Z,1011.73
2023-03-23T02:40:03.957Z,1011.74
2023-03-23T02:41:03.953Z,1011.79
2023-03-23T02:42:04.064Z,1011.79
2023-03-23T02:43:03.950Z,1011.72
2023-03-23T02:44:03.963Z,1011.7
2023-03-23T02:45:03.957Z,1011.68
2023-03-23T02:46:03.959Z,1011.7
2023-03-23T02:47:03.949Z,1011.67
2023-03-23T02:48:03.957Z,1011.65
2023-03-23T02:49:03.989Z,1011.65
2023-03-23T02:50:03.940Z,1011.67
2023-03-23T02:51:03.950Z,1011.6
2023-03-23T02:52:03.950Z,1011.67
2023-03-23T02:53:03.949Z,1011.63
2023-03-23T02:54:03.962Z,1011.58
2023-03-23T02:55:03.951Z,1011.6
2023-03-23T02:56:03.956Z,1011.81
2023-03-23T02:57:03.964Z,1011.74
2023-03-23T02:58:03.952Z,1011.68
2023-03-23T02:59:03.959Z,1011.72
2023-03-23T03:00:03.947Z,1011.71
2023-03-23T03:01:03.960Z,1011.65
2023-03-23T03:02:03.949Z,1011.61
2023-03-23T03:03:03.962Z,1011.62
2023-03-23T03:04:03.972Z,1011.59
2023-03-23T03:05:03.949Z,1011.6
2023-03-23T03:06:03.956Z,1011.6
2023-03-23T03:07:03.976Z,1011.77
2023-03-23T03:08:03.955Z,1011.68
2023-03-23T03:09:03.964Z,1011.68
2023-03-23T03:10:03.945Z,1011.66
2023-03-23T03:11:03.943Z,1011.59
2023-03-23T03:12:03.973Z,1011.59
2023-03-23T03:13:03.958Z,1011.58
2023-03-23T03:14:03.968Z,1011.62
2023-03-23T03:15:03.950Z,1011.52
2023-03-23T03:16:03.948Z,1011.54
2023-03-23T03:17:03.950Z,1011.53
2023-03-23T03:18:03.964Z,1011.51
2023-03-23T03:19:03.971Z,1011.54
2023-03-23T03:20:03.958Z,1011.53
2023-03-23T03:21:03.958Z,1011.49
2023-03-23T03:22:03.947Z,1011.48
2023-03-23T03:23:03.950Z,1011.55
2023-03-23T03:24:03.960Z,1011.44
2023-03-23T03:25:17.864Z,1011.45
2023-03-23T03:26:03.960Z,1011.45
2023-03-23T03:27:03.975Z,1011.48
2023-03-23T03:28:04.247Z,1011.48
2023-03-23T03:29:03.970Z,1011.53
2023-03-23T03:30:03.954Z,1011.55
2023-03-23T03:31:03.947Z,1011.61
2023-03-23T03:32:03.956Z,1011.57
2023-03-23T03:33:03.970Z,1011.61
2023-03-23T03:34:03.975Z,1011.62
2023-03-23T03:35:03.965Z,1011.62
2023-03-23T03:36:03.978Z,1011.61
2023-03-23T03:37:03.959Z,1011.61
2023-03-23T03:38:03.957Z,1011.71
2023-03-23T03:39:03.968Z,1011.63
2023-03-23T03:40:03.975Z,1011.65
2023-03-23T03:41:03.957Z,1011.63
2023-03-23T03:42:03.971Z,1011.65
2023-03-23T03:43:03.955Z,1011.63
2023-03-23T03:44:03.966Z,1011.66
2023-03-23T03:45:03.951Z,1011.67
2023-03-23T03:46:03.958Z,1011.63
2023-03-23T03:47:03.952Z,1011.61
2023-03-23T03:48:03.945Z,1011.63
2023-03-23T03:49:03.978Z,1011.58
2023-03-23T03:50:03.954Z,1011.61
2023-03-23T03:51:03.962Z,1011.55
2023-03-23T03:52:03.949Z,1011.54
2023-03-23T03:53:03.956Z,1011.66
2023-03-23T03:54:03.979Z,1011.56
2023-03-23T03:55:03.959Z,1011.58
2023-03-23T03:56:03.949Z,1011.58
2023-03-23T03:57:03.982Z,1011.54
2023-03-23T03:58:03.945Z,1011.53
2023-03-23T03:59:21.093Z,1011.57
2023-03-23T04:00:03.951Z,1011.59
2023-03-23T04:01:03.967Z,1011.63
2023-03-23T04:02:03.961Z,1011.64
2023-03-23T04:03:03.958Z,1011.55
2023-03-23T04:04:03.966Z,1011.52
2023-03-23T04:05:03.953Z,1011.61
2023-03-23T04:06:03.972Z,1011.61
2023-03-23T04:07:03.960Z,1011.57
2023-03-23T04:08:09.508Z,1011.48
2023-03-23T04:09:07.828Z,1011.54
2023-03-23T04:10:03.947Z,1011.52
2023-03-23T04:11:03.952Z,1011.52
2023-03-23T04:12:03.976Z,1011.53
2023-03-23T04:13:03.964Z,1011.52
2023-03-23T04:14:03.980Z,1011.59
2023-03-23T04:15:06.009Z,1011.51
2023-03-23T04:16:10.104Z,1011.49
2023-03-23T04:17:03.950Z,1011.45
2023-03-23T04:18:03.951Z,1011.43
2023-03-23T04:19:03.966Z,1011.44
2023-03-23T04:20:03.974Z,1011.39
2023-03-23T04:21:04.378Z,1011.38
2023-03-23T04:22:03.957Z,1011.45
2023-03-23T04:23:03.955Z,1011.45
2023-03-23T04:24:03.976Z,1011.45
2023-03-23T04:25:03.971Z,1011.49
2023-03-23T04:26:03.950Z,1011.55
2023-03-23T04:27:03.978Z,1011.55
2023-03-23T04:28:03.955Z,1011.53
2023-03-23T04:29:03.981Z,1011.6
2023-03-23T04:30:03.944Z,1011.54
2023-03-23T04:31:06.183Z,1011.57
2023-03-23T04:32:03.957Z,1011.53
2023-03-23T04:33:03.950Z,1011.66
2023-03-23T04:34:03.974Z,1011.62
2023-03-23T04:35:12.881Z,1011.67
2023-03-23T04:36:03.987Z,1011.51
2023-03-23T04:37:03.952Z,1011.58
2023-03-23T04:38:03.958Z,1011.7
2023-03-23T04:39:03.974Z,1011.52
2023-03-23T04:40:03.960Z,1011.6
2023-03-23T04:41:03.949Z,1011.53
2023-03-23T04:42:03.975Z,1011.53
2023-03-23T04:43:03.956Z,1011.63
2023-03-23T04:44:03.973Z,1011.72
2023-03-23T04:45:03.960Z,1011.65
2023-03-23T04:46:03.952Z,1011.62
2023-03-23T04:47:03.963Z,1011.7
2023-03-23T04:48:03.949Z,1011.59
2023-03-23T04:49:03.979Z,1011.53
2023-03-23T04:50:03.953Z,1011.52
2023-03-23T04:51:03.954Z,1011.54
2023-03-23T04:52:03.954Z,1011.71
2023-03-23T04:53:03.971Z,1011.39
2023-03-23T04:54:03.977Z,1011.47
2023-03-23T04:55:03.959Z,1011.51
2023-03-23T04:56:03.952Z,1011.45
2023-03-23T04:57:03.968Z,1011.39
2023-03-23T04:58:03.957Z,1011.28
2023-03-23T04:59:03.968Z,1011.62
2023-03-23T05:00:03.942Z,1011.55
2023-03-23T05:01:03.985Z,1011.45
2023-03-23T05:02:14.634Z,1011.44
2023-03-23T05:03:03.949Z,1011.5
2023-03-23T05:04:03.969Z,1011.49
2023-03-23T05:05:03.954Z,1011.33
2023-03-23T05:06:03.962Z,1011.33
2023-03-23T05:07:03.946Z,1011.4
2023-03-23T05:08:03.957Z,1011.71
2023-03-23T05:09:03.968Z,1011.77
2023-03-23T05:10:03.943Z,1011.45
2023-03-23T05:11:03.946Z,1011.51
2023-03-23T05:12:03.973Z,1011.55
2023-03-23T05:13:03.959Z,1011.37
2023-03-23T05:14:03.962Z,1011.5
2023-03-23T05:15:03.945Z,1011.41
2023-03-23T05:16:03.948Z,1011.4
2023-03-23T05:17:03.970Z,1011.39
2023-03-23T05:18:03.942Z,1011.71
2023-03-23T05:19:03.976Z,1011.21
2023-03-23T05:20:03.941Z,1011.28
2023-03-23T05:21:03.956Z,1011.28
2023-03-23T05:22:03.951Z,1011.47
2023-03-23T05:23:03.952Z,1011.27
2023-03-23T05:24:03.973Z,1011.26
2023-03-23T05:25:03.957Z,1011.35
2023-03-23T05:26:03.949Z,1011.27
2023-03-23T05:27:03.981Z,1011.2
2023-03-23T05:28:03.955Z,1011.04
2023-03-23T05:29:03.971Z,1011.09
2023-03-23T05:30:03.937Z,1011.13
2023-03-23T05:31:03.949Z,1011.09
2023-03-23T05:32:03.944Z,1011.07
2023-03-23T05:33:03.956Z,1011.19
2023-03-23T05:34:03.961Z,1011.19
2023-03-23T05:35:03.953Z,1011.24
2023-03-23T05:36:03.984Z,1011.25
2023-03-23T05:37:03.943Z,1011.26
2023-03-23T05:38:03.941Z,1011.26
2023-03-23T05:39:03.973Z,1011.24
2023-03-23T05:40:03.937Z,1011.3
2023-03-23T05:41:03.952Z,1011.36
2023-03-23T05:42:03.972Z,1011.34
2023-03-23T05:43:03.948Z,1011.48
2023-03-23T05:44:03.966Z,1011.41
2023-03-23T05:45:03.948Z,1011.45
2023-03-23T05:46:03.953Z,1011.47
2023-03-23T05:47:03.956Z,1011.35
2023-03-23T05:48:03.955Z,1011.47
2023-03-23T05:49:03.974Z,1011.51
2023-03-23T05:50:03.936Z,1011.43
2023-03-23T05:51:03.948Z,1011.43
2023-03-23T05:52:03.952Z,1011.42
2023-03-23T05:53:03.952Z,1011.31
2023-03-23T05:54:03.958Z,1011.17
2023-03-23T05:55:03.954Z,1011.47
2023-03-23T05:56:03.954Z,1011.13
2023-03-23T05:57:03.965Z,1011.3
2023-03-23T05:58:03.954Z,1011.19
2023-03-23T05:59:03.962Z,1011.32
2023-03-23T06:00:03.946Z,1011.14
2023-03-23T06:01:03.951Z,1011.19
2023-03-23T06:02:03.960Z,1011.29
2023-03-23T06:03:03.964Z,1011.15
2023-03-23T06:04:03.966Z,1011.17
2023-03-23T06:05:03.956Z,1011.19
2023-03-23T06:06:03.938Z,1011.19
2023-03-23T06:07:03.957Z,1011.13
2023-03-23T06:08:03.955Z,1011.15
2023-03-23T06:09:04.515Z,1011.15
2023-03-23T06:10:03.941Z,1011.11
2023-03-23T06:11:03.948Z,1011.16
2023-03-23T06:12:03.958Z,1011.15
2023-03-23T06:13:03.956Z,1011.08
2023-03-23T06:14:03.964Z,1011.06
2023-03-23T06:15:03.959Z,1011.03
2023-03-23T06:16:03.950Z,1011.34
2023-03-23T06:17:03.949Z,1011.11
2023-03-23T06:18:03.965Z,1011.04
2023-03-23T06:19:03.979Z,1010.89
2023-03-23T06:20:03.946Z,1010.91
2023-03-23T06:21:03.979Z,1010.95
2023-03-23T06:22:03.954Z,1010.99
2023-03-23T06:23:03.970Z,1011.1
2023-03-23T06:24:03.959Z,1011.06
2023-03-23T06:25:03.950Z,1011.12
2023-03-23T06:26:04.685Z,1011.05
2023-03-23T06:27:03.970Z,1011.47
2023-03-23T06:28:03.956Z,1011.06
2023-03-23T06:29:03.960Z,1011.05
2023-03-23T06:30:03.945Z,1011.25
2023-03-23T06:31:03.959Z,1011.05
2023-03-23T06:32:03.952Z,1011.15
2023-03-23T06:33:03.953Z,1011.27
2023-03-23T06:34:03.975Z,1011.06
2023-03-23T06:35:03.961Z,1011.13
2023-03-23T06:36:03.979Z,1011.17
2023-03-23T06:37:03.956Z,1011.14
2023-03-23T06:38:03.950Z,1010.96
2023-03-23T06:39:03.977Z,1011.03
2023-03-23T06:40:03.945Z,1011.1
2023-03-23T06:41:04.031Z,1011.18
2023-03-23T06:42:03.980Z,1010.98
2023-03-23T06:43:03.954Z,1011.11
2023-03-23T06:44:03.973Z,1011.13
2023-03-23T06:45:03.955Z,1011.01
2023-03-23T06:46:03.959Z,1011.03
2023-03-23T06:47:03.956Z,1011.06
2023-03-23T06:48:03.949Z,1010.99
2023-03-23T06:49:03.977Z,1011.42
2023-03-23T06:50:03.947Z,1010.98
2023-03-23T06:51:03.953Z,1010.85
2023-03-23T06:52:03.955Z,1010.91
2023-03-23T06:53:03.956Z,1010.99
2023-03-23T06:54:03.977Z,1010.9
2023-03-23T06:55:03.974Z,1010.95
2023-03-23T06:56:03.950Z,1011.26
2023-03-23T06:57:03.971Z,1010.94
2023-03-23T06:58:03.959Z,1011.06
2023-03-23T06:59:03.973Z,1011.21
2023-03-23T07:00:03.954Z,1010.91
2023-03-23T07:01:03.954Z,1010.99
2023-03-23T07:02:03.991Z,1010.92
2023-03-23T07:03:03.951Z,1010.88
2023-03-23T07:04:03.974Z,1010.82
2023-03-23T07:05:03.958Z,1011.01
2023-03-23T07:06:04.164Z,1011.01
2023-03-23T07:07:03.952Z,1010.89
2023-03-23T07:08:03.947Z,1011.1
2023-03-23T07:09:03.975Z,1011.1
2023-03-23T07:10:03.945Z,1011.11
2023-03-23T07:11:03.956Z,1010.95
2023-03-23T07:12:03.986Z,1010.99
2023-03-23T07:13:03.955Z,1011.12
2023-03-23T07:14:03.974Z,1011.07
2023-03-23T07:15:03.955Z,1011.26
2023-03-23T07:16:03.957Z,1011.2
2023-03-23T07:17:03.949Z,1011.03
2023-03-23T07:18:03.953Z,1011.16
2023-03-23T07:19:03.976Z,1011.2
2023-03-23T07:20:03.948Z,1011.24
2023-03-23T07:21:03.962Z,1011.34
2023-03-23T07:22:03.958Z,1011.27
2023-03-23T07:23:03.959Z,1011.51
2023-03-23T07:24:03.979Z,1011.3
2023-03-23T07:25:03.952Z,1011.42
2023-03-23T07:26:03.959Z,1011.44
2023-03-23T07:27:03.972Z,1011.48
2023-03-23T07:28:03.955Z,1011.43
2023-03-23T07:29:03.988Z,1011.62
2023-03-23T07:30:03.953Z,1011.39
2023-03-23T07:31:03.957Z,1011.56
2023-03-23T07:32:03.956Z,1011.4
2023-03-23T07:33:03.951Z,1011.44
2023-03-23T07:34:03.973Z,1011.51
2023-03-23T07:35:03.952Z,1011.45
2023-03-23T07:36:03.971Z,1011.5
2023-03-23T07:37:03.956Z,1011.5
2023-03-23T07:38:03.944Z,1011.48
2023-03-23T07:39:03.977Z,1011.59
2023-03-23T07:40:03.948Z,1011.66
2023-03-23T07:41:03.962Z,1011.73
2023-03-23T07:42:03.976Z,1011.62
2023-03-23T07:43:03.952Z,1011.53
2023-03-23T07:44:03.971Z,1011.67
2023-03-23T07:45:03.956Z,1011.64
2023-03-23T07:46:03.947Z,1011.63
2023-03-23T07:47:03.950Z,1011.56
2023-03-23T07:48:07.372Z,1011.67
2023-03-23T07:49:03.972Z,1011.6
2023-03-23T07:50:03.946Z,1011.54
2023-03-23T07:51:03.950Z,1011.73
2023-03-23T07:52:03.950Z,1011.76
2023-03-23T07:53:03.946Z,1011.65
2023-03-23T07:54:06.306Z,1011.78
2023-03-23T07:55:03.961Z,1011.63
2023-03-23T07:56:04.059Z,1011.73
2023-03-23T07:57:03.980Z,1011.65
2023-03-23T07:58:03.950Z,1011.62
2023-03-23T07:59:03.973Z,1011.71
2023-03-23T08:00:03.946Z,1011.52
2023-03-23T08:01:03.954Z,1011.5
2023-03-23T08:02:03.948Z,1011.54
2023-03-23T08:03:03.949Z,1011.58
2023-03-23T08:04:03.971Z,1011.62
2023-03-23T08:05:03.950Z,1011.49
2023-03-23T08:06:03.944Z,1011.49
2023-03-23T08:07:03.956Z,1011.57
2023-03-23T08:08:03.959Z,1011.56
2023-03-23T08:09:03.975Z,1011.72
2023-03-23T08:10:03.940Z,1011.61
2023-03-23T08:11:03.945Z,1011.66
2023-03-23T08:12:03.970Z,1011.77
2023-03-23T08:13:03.950Z,1011.78
2023-03-23T08:14:03.987Z,1011.76
2023-03-23T08:15:03.950Z,1011.83
2023-03-23T08:16:03.949Z,1011.71
2023-03-23T08:17:03.941Z,1011.72
2023-03-23T08:18:03.948Z,1011.74
2023-03-23T08:19:08.462Z,1011.81
2023-03-23T08:20:03.936Z,1011.86
2023-03-23T08:21:03.950Z,1011.82
2023-03-23T08:22:03.950Z,1011.8
2023-03-23T08:23:03.948Z,1011.76
2023-03-23T08:24:03.978Z,1011.74
2023-03-23T08:25:03.945Z,1011.74
2023-03-23T08:26:03.959Z,1011.75
2023-03-23T08:27:03.973Z,1011.64
2023-03-23T08:28:03.952Z,1011.6
2023-03-23T08:29:03.970Z,1011.64
2023-03-23T08:30:03.944Z,1011.7
2023-03-23T08:31:03.945Z,1011.75
2023-03-23T08:32:03.951Z,1011.73
2023-03-23T08:33:03.951Z,1011.67
2023-03-23T08:34:03.967Z,1011.68
2023-03-23T08:35:03.953Z,1011.71
2023-03-23T08:36:04.009Z,1011.94
2023-03-23T08:37:03.950Z,1011.7
2023-03-23T08:38:03.948Z,1011.71
2023-03-23T08:39:03.965Z,1011.78
2023-03-23T08:40:04.004Z,1011.9
2023-03-23T08:41:03.946Z,1011.78
2023-03-23T08:42:03.979Z,1011.8
2023-03-23T08:43:03.947Z,1011.92
2023-03-23T08:44:03.962Z,1011.86
2023-03-23T08:45:03.963Z,1011.73
2023-03-23T08:46:03.970Z,1011.78
2023-03-23T08:47:03.951Z,1011.77
2023-03-23T08:48:03.974Z,1011.79
2023-03-23T08:49:03.972Z,1011.87
2023-03-23T08:50:03.943Z,1011.79
2023-03-23T08:51:03.948Z,1011.8
2023-03-23T08:52:03.963Z,1011.87
2023-03-23T08:53:03.956Z,1011.77
2023-03-23T08:54:03.967Z,1011.89
2023-03-23T08:55:03.955Z,1011.9
2023-03-23T08:56:03.948Z,1011.85
2023-03-23T08:57:03.958Z,1011.94
2023-03-23T08:58:03.953Z,1011.86
2023-03-23T08:59:03.970Z,1011.77
2023-03-23T09:00:03.956Z,1011.82
2023-03-23T09:01:03.959Z,1011.83
2023-03-23T09:02:03.952Z,1011.77
2023-03-23T09:03:03.947Z,1011.72
2023-03-23T09:04:03.971Z,1011.74
2023-03-23T09:05:03.993Z,1011.68
2023-03-23T09:06:03.954Z,1011.68
2023-03-23T09:07:03.952Z,1011.7
2023-03-23T09:08:03.950Z,1011.82
2023-03-23T09:09:03.965Z,1011.79
2023-03-23T09:10:03.939Z,1011.76
2023-03-23T09:11:03.950Z,1011.77
2023-03-23T09:12:03.971Z,1011.86
2023-03-23T09:13:03.952Z,1011.77
2023-03-23T09:14:03.973Z,1011.76
2023-03-23T09:15:03.952Z,1011.8
2023-03-23T09:16:03.962Z,1011.86
2023-03-23T09:17:03.963Z,1011.88
2023-03-23T09:18:03.952Z,1011.95
2023-03-23T09:19:03.974Z,1011.96
2023-03-23T09:20:03.940Z,1011.95
2023-03-23T09:21:03.962Z,1011.99
2023-03-23T09:22:03.961Z,1012.12
2023-03-23T09:23:03.972Z,1011.92
2023-03-23T09:24:03.975Z,1011.92
2023-03-23T09:25:04.696Z,1012.03
2023-03-23T09:26:03.956Z,1012.09
2023-03-23T09:27:03.983Z,1011.98
2023-03-23T09:28:03.944Z,1012
2023-03-23T09:29:03.979Z,1012
2023-03-23T09:30:03.948Z,1012.01
2023-03-23T09:31:03.951Z,1012.1
2023-03-23T09:32:03.954Z,1012.08
2023-03-23T09:33:03.972Z,1011.97
2023-03-23T09:34:03.964Z,1012.04
2023-03-23T09:35:03.971Z,1012
2023-03-23T09:36:03.945Z,1012.03
2023-03-23T09:37:03.950Z,1011.99
2023-03-23T09:38:03.953Z,1011.98
2023-03-23T09:39:03.964Z,1012.06
2023-03-23T09:40:06.875Z,1012.07
2023-03-23T09:41:03.954Z,1012.1
2023-03-23T09:42:03.968Z,1011.95
2023-03-23T09:43:03.954Z,1011.99
2023-03-23T09:44:03.984Z,1012
2023-03-23T09:45:03.958Z,1011.99
2023-03-23T09:46:03.951Z,1012.03
2023-03-23T09:47:03.952Z,1012.05
2023-03-23T09:48:03.953Z,1012.04
2023-03-23T09:49:04.003Z,1012.02
2023-03-23T09:50:03.945Z,1011.89
2023-03-23T09:51:03.954Z,1012.05
2023-03-23T09:52:03.958Z,1012.08
2023-03-23T09:53:03.980Z,1012.09
2023-03-23T09:54:03.975Z,1012.26
2023-03-23T09:55:03.952Z,1012.12
2023-03-23T09:56:03.961Z,1012.1
2023-03-23T09:57:03.968Z,1012.1
2023-03-23T09:58:03.952Z,1012.12
2023-03-23T09:59:03.982Z,1012.14
2023-03-23T10:00:03.941Z,1012.05
2023-03-23T10:01:03.983Z,1012.12
2023-03-23T10:02:03.947Z,1012.06
2023-03-23T10:03:03.949Z,1012.09
2023-03-23T10:04:03.968Z,1012.04
2023-03-23T10:05:03.956Z,1012.04
2023-03-23T10:06:03.945Z,1012.04
2023-03-23T10:07:03.945Z,1012.04
2023-03-23T10:08:03.957Z,1012.02
2023-03-23T10:09:03.977Z,1011.99
2023-03-23T10:10:03.959Z,1012.13
2023-03-23T10:11:03.965Z,1012.07
2023-03-23T10:12:03.970Z,1012.12
2023-03-23T10:13:03.956Z,1012.1
2023-03-23T10:14:03.973Z,1012.19
2023-03-23T10:15:03.952Z,1012.1
2023-03-23T10:16:03.952Z,1012.14
2023-03-23T10:17:03.970Z,1012.18
2023-03-23T10:18:03.955Z,1012.15
2023-03-23T10:19:03.965Z,1012.11
2023-03-23T10:20:03.947Z,1012.19
2023-03-23T10:21:03.950Z,1012.15
2023-03-23T10:22:03.958Z,1012.04
2023-03-23T10:23:03.954Z,1012.12
2023-03-23T10:24:03.961Z,1012.08
2023-03-23T10:25:03.954Z,1012.11
2023-03-23T10:26:03.952Z,1012.07
2023-03-23T10:27:03.977Z,1012.15
2023-03-23T10:28:03.956Z,1012.11
2023-03-23T10:29:03.972Z,1012.13
2023-03-23T10:30:03.947Z,1012.14
2023-03-23T10:31:03.968Z,1012.17
2023-03-23T10:32:03.954Z,1012.19
2023-03-23T10:33:03.956Z,1012.11
2023-03-23T10:34:03.962Z,1012.18
2023-03-23T10:35:03.962Z,1012.14
2023-03-23T10:36:04.001Z,1012.06
2023-03-23T10:37:03.953Z,1012.09
2023-03-23T10:38:03.955Z,1012.05
2023-03-23T10:39:03.978Z,1012.06
2023-03-23T10:40:03.943Z,1012.05
2023-03-23T10:41:03.953Z,1012.1
2023-03-23T10:42:03.980Z,1012.05
2023-03-23T10:43:03.946Z,1012
2023-03-23T10:44:03.972Z,1012.03
2023-03-23T10:45:03.950Z,1011.96
2023-03-23T10:46:04.204Z,1011.98
2023-03-23T10:47:03.965Z,1012.03
2023-03-23T10:48:03.957Z,1011.95
2023-03-23T10:49:03.980Z,1011.99
2023-03-23T10:50:03.945Z,1011.92
2023-03-23T10:51:03.967Z,1011.92
2023-03-23T10:52:03.949Z,1011.94
2023-03-23T10:53:05.143Z,1011.87
2023-03-23T10:54:03.976Z,1011.9
2023-03-23T10:55:03.963Z,1011.91
2023-03-23T10:56:03.960Z,1011.96
2023-03-23T10:57:04.064Z,1011.97
2023-03-23T10:58:03.956Z,1011.88
2023-03-23T10:59:04.016Z,1011.87
2023-03-23T11:00:04.326Z,1011.89
2023-03-23T11:01:03.967Z,1011.9
2023-03-23T11:02:03.962Z,1011.9
2023-03-23T11:03:05.162Z,1011.84
2023-03-23T11:04:03.974Z,1011.94
2023-03-23T11:05:09.375Z,1011.9
2023-03-23T11:06:03.966Z,1011.94
2023-03-23T11:07:03.950Z,1011.94
2023-03-23T11:08:03.957Z,1011.97
2023-03-23T11:09:03.976Z,1011.99
2023-03-23T11:10:03.947Z,1011.98
2023-03-23T11:11:03.953Z,1011.95
2023-03-23T11:12:03.999Z,1011.95
2023-03-23T11:13:03.947Z,1011.99
2023-03-23T11:14:03.974Z,1012
2023-03-23T11:15:03.954Z,1011.97
2023-03-23T11:16:03.952Z,1012.01
2023-03-23T11:17:10.436Z,1011.98
2023-03-23T11:18:03.955Z,1012.05
2023-03-23T11:19:03.972Z,1012.04
2023-03-23T11:20:03.947Z,1012.07
2023-03-23T11:21:03.944Z,1012.07
2023-03-23T11:22:03.944Z,1012.14
2023-03-23T11:23:03.960Z,1012.24
2023-03-23T11:24:09.524Z,1012.2
2023-03-23T11:25:03.963Z,1012.3
2023-03-23T11:26:03.957Z,1012.23
2023-03-23T11:27:03.990Z,1012.19
2023-03-23T11:28:03.971Z,1012.3
2023-03-23T11:29:03.988Z,1012.25
2023-03-23T11:30:03.949Z,1012.23
2023-03-23T11:31:03.965Z,1012.25
2023-03-23T11:32:03.958Z,1012.26
2023-03-23T11:33:03.956Z,1012.25
2023-03-23T11:34:06.140Z,1012.27
2023-03-23T11:35:15.551Z,1012.22
2023-03-23T11:36:03.970Z,1012.21
2023-03-23T11:37:03.962Z,1012.19
2023-03-23T11:38:03.957Z,1012.2
2023-03-23T11:39:03.970Z,1012.28
2023-03-23T11:40:03.942Z,1012.22
2023-03-23T11:41:03.957Z,1012.24
2023-03-23T11:42:09.612Z,1012.26
2023-03-23T11:43:03.962Z,1012.3
2023-03-23T11:44:03.975Z,1012.26
2023-03-23T11:45:03.955Z,1012.26
2023-03-23T11:46:03.954Z,1012.22
2023-03-23T11:47:03.961Z,1012.14
2023-03-23T11:48:03.977Z,1012.17
2023-03-23T11:49:12.733Z,1012.2
2023-03-23T11:50:03.953Z,1012.17
2023-03-23T11:51:03.952Z,1012.11
2023-03-23T11:52:03.960Z,1012.14
2023-03-23T11:53:03.957Z,1012.14
2023-03-23T11:54:03.973Z,1012.2
2023-03-23T11:55:03.953Z,1012.18
2023-03-23T11:56:03.985Z,1012.14
2023-03-23T11:57:03.968Z,1012.23
2023-03-23T11:58:03.953Z,1012.23
2023-03-23T11:59:03.956Z,1012.24
2023-03-23T12:00:03.943Z,1012.21
2023-03-23T12:01:03.951Z,1012.23
2023-03-23T12:02:16.748Z,1012.2
2023-03-23T12:03:03.949Z,1012.23
2023-03-23T12:04:03.964Z,1012.18
2023-03-23T12:05:03.958Z,1012.15
2023-03-23T12:06:03.956Z,1012.18
2023-03-23T12:07:03.956Z,1012.18
2023-03-23T12:08:03.955Z,1012.17